createdAt,value
2019-05-23T00:00:34.866Z,21.60
2019-05-23T00:05:03.630Z,21.37
2019-05-23T00:09:23.660Z,23.93
2019-05-23T00:13:43.530Z,23.57
2019-05-23T00:17:48.786Z,20.50
2019-05-23T00:21:52.765Z,22.17
2019-05-23T00:25:55.476Z,23.97
2019-05-23T00:29:59.105Z,22.97
2019-05-23T00:34:02.860Z,24.40
2019-05-23T00:38:05.975Z,22.37
2019-05-23T00:42:07.837Z,24.83
2019-05-23T00:46:10.067Z,23.50
2019-05-23T00:50:13.026Z,27.03
2019-05-23T00:54:16.147Z,25.77
2019-05-23T00:58:19.404Z,25.10
2019-05-23T01:02:21.398Z,27.53
2019-05-23T01:06:23.818Z,21.20
2019-05-23T01:10:26.017Z,24.97
2019-05-23T01:14:28.856Z,21.43
2019-05-23T01:18:31.150Z,21.93
2019-05-23T01:22:33.300Z,22.87
2019-05-23T01:26:35.861Z,19.97
2019-05-23T01:30:43.465Z,19.40
2019-05-23T01:34:46.369Z,21.93
2019-05-23T01:38:48.288Z,20.40
2019-05-23T01:42:51.649Z,18.57
2019-05-23T01:46:53.709Z,20.17
2019-05-23T01:50:57.802Z,18.03
2019-05-23T01:55:00.559Z,17.30
2019-05-23T01:59:02.909Z,16.93
2019-05-23T02:03:05.009Z,19.73
2019-05-23T02:07:07.459Z,17.60
2019-05-23T02:11:10.854Z,20.00
2019-05-23T02:15:14.211Z,16.50
2019-05-23T02:19:16.649Z,14.57
2019-05-23T02:23:20.011Z,15.07
2019-05-23T02:27:23.370Z,11.73
2019-05-23T02:31:25.356Z,13.03
2019-05-23T02:35:27.410Z,10.73
2019-05-23T02:39:37.096Z,10.20
2019-05-23T02:43:44.855Z,12.20
2019-05-23T02:47:51.389Z,12.53
2019-05-23T02:51:56.744Z,9.00
2019-05-23T02:56:01.866Z,9.90
2019-05-23T03:00:19.233Z,10.37
2019-05-23T03:04:25.155Z,9.47
2019-05-23T03:08:29.097Z,9.20
2019-05-23T03:12:32.034Z,8.47
2019-05-23T03:16:36.392Z,9.73
2019-05-23T03:20:39.069Z,8.70
2019-05-23T03:24:42.335Z,10.13
2019-05-23T03:28:44.211Z,9.23
2019-05-23T03:32:50.153Z,13.47
2019-05-23T03:36:53.356Z,9.40
2019-05-23T03:41:00.622Z,10.50
2019-05-23T03:45:07.362Z,14.87
2019-05-23T03:49:11.583Z,11.37
2019-05-23T03:53:13.586Z,9.97
2019-05-23T03:57:17.085Z,8.90
2019-05-23T04:01:22.572Z,9.20
2019-05-23T04:05:25.927Z,8.73
2019-05-23T04:09:28.105Z,9.00
2019-05-23T04:13:30.741Z,9.10
2019-05-23T04:17:32.651Z,10.53
2019-05-23T04:21:34.507Z,9.87
2019-05-23T04:25:37.354Z,8.47
2019-05-23T04:29:39.286Z,10.50
2019-05-23T04:33:41.204Z,7.63
2019-05-23T04:37:45.042Z,7.43
2019-05-23T04:41:46.945Z,7.33
2019-05-23T04:45:48.889Z,9.70
2019-05-23T04:49:50.709Z,9.83
2019-05-23T04:53:54.850Z,10.23
2019-05-23T04:57:56.658Z,7.60
2019-05-23T05:01:59.018Z,7.30
2019-05-23T05:06:02.053Z,7.30
2019-05-23T05:10:04.269Z,8.10
2019-05-23T05:14:06.801Z,7.40
2019-05-23T05:18:09.426Z,8.27
2019-05-23T05:22:11.369Z,8.00
2019-05-23T05:26:20.532Z,6.80
2019-05-23T05:30:23.185Z,7.10
2019-05-23T05:34:25.119Z,7.57
2019-05-23T05:38:28.981Z,5.43
2019-05-23T05:42:32.473Z,11.30
2019-05-23T05:46:34.601Z,7.93
2019-05-23T05:50:36.742Z,7.67
2019-05-23T05:54:38.611Z,6.83
2019-05-23T05:58:40.387Z,7.23
2019-05-23T06:02:42.938Z,9.03
2019-05-23T06:06:52.389Z,6.40
2019-05-23T06:10:54.770Z,7.53
2019-05-23T06:14:56.708Z,7.13
2019-05-23T06:18:58.891Z,14.27
2019-05-23T06:23:01.319Z,6.27
2019-05-23T06:27:04.065Z,13.33
2019-05-23T06:31:06.579Z,10.20
2019-05-23T06:35:08.829Z,7.80
2019-05-23T06:39:12.595Z,7.17
2019-05-23T06:43:14.713Z,8.80
2019-05-23T06:47:17.829Z,8.30
2019-05-23T06:51:20.230Z,8.73
2019-05-23T06:55:22.166Z,7.63
2019-05-23T06:59:24.150Z,11.20
2019-05-23T07:03:41.460Z,7.77
2019-05-23T07:07:32.641Z,5.67
2019-05-23T07:11:34.550Z,6.00
2019-05-23T07:15:36.346Z,10.23
2019-05-23T07:19:38.085Z,7.40
2019-05-23T07:23:40.037Z,5.83
2019-05-23T07:27:42.719Z,5.83
2019-05-23T07:31:44.783Z,6.50
2019-05-23T07:35:46.646Z,6.50
2019-05-23T07:39:49.418Z,7.73
2019-05-23T07:43:52.163Z,7.87
2019-05-23T07:47:54.663Z,5.37
2019-05-23T07:51:56.404Z,5.27
2019-05-23T07:56:00.087Z,6.63
2019-05-23T08:00:04.066Z,4.90
2019-05-23T08:04:20.709Z,5.97
2019-05-23T08:08:10.199Z,4.83
2019-05-23T08:12:12.183Z,5.20
2019-05-23T08:16:15.109Z,6.33
2019-05-23T08:20:18.409Z,10.70
2019-05-23T08:24:20.447Z,6.93
2019-05-23T08:28:23.307Z,6.87
2019-05-23T08:32:25.159Z,8.87
2019-05-23T08:36:27.036Z,5.93
2019-05-23T08:40:39.644Z,8.80
2019-05-23T08:44:41.700Z,7.67
2019-05-23T08:48:44.195Z,4.77
2019-05-23T08:52:46.403Z,5.67
2019-05-23T08:56:48.150Z,6.87
2019-05-23T09:00:50.309Z,7.80
2019-05-23T09:05:04.225Z,6.40
2019-05-23T09:08:56.658Z,5.63
2019-05-23T09:13:02.870Z,6.77
2019-05-23T09:17:06.081Z,8.40
2019-05-23T09:21:09.064Z,6.77
2019-05-23T09:25:11.772Z,7.07
2019-05-23T09:29:14.318Z,5.50
2019-05-23T09:33:16.865Z,5.73
2019-05-23T09:37:19.451Z,5.53
2019-05-23T09:41:21.687Z,6.70
2019-05-23T09:45:23.907Z,6.90
2019-05-23T09:49:26.151Z,5.40
2019-05-23T09:53:28.575Z,8.10
2019-05-23T09:57:31.231Z,5.90
2019-05-23T10:01:33.428Z,4.00
2019-05-23T10:05:43.405Z,6.97
2019-05-23T10:09:41.275Z,4.63
2019-05-23T10:13:43.385Z,5.47
2019-05-23T10:17:45.705Z,7.90
2019-05-23T10:21:47.907Z,7.57
2019-05-23T10:25:50.077Z,7.40
2019-05-23T10:29:52.395Z,7.13
2019-05-23T10:33:54.350Z,5.80
2019-05-23T10:37:56.540Z,3.43
2019-05-23T10:41:59.813Z,7.67
2019-05-23T10:46:02.075Z,8.07
2019-05-23T10:50:08.162Z,5.53
2019-05-23T10:54:10.467Z,5.97
2019-05-23T10:58:13.369Z,4.50
2019-05-23T11:02:16.337Z,6.10
2019-05-23T11:06:18.624Z,6.27
2019-05-23T11:10:22.165Z,4.57
2019-05-23T11:14:24.559Z,4.53
2019-05-23T11:18:26.653Z,4.00
2019-05-23T11:22:29.112Z,5.00
2019-05-23T11:26:31.125Z,6.70
2019-05-23T11:30:45.999Z,8.47
2019-05-23T11:34:48.085Z,5.93
2019-05-23T11:38:50.310Z,6.73
2019-05-23T11:42:52.948Z,6.87
2019-05-23T11:46:55.626Z,5.90
2019-05-23T11:50:59.170Z,5.27
2019-05-23T11:55:01.412Z,6.03
2019-05-23T11:59:05.124Z,9.50
2019-05-23T12:03:09.478Z,7.70
2019-05-23T12:07:22.229Z,7.60
2019-05-23T12:11:24.536Z,7.83
2019-05-23T12:15:28.751Z,7.50
2019-05-23T12:19:31.118Z,7.50
2019-05-23T12:23:33.375Z,9.63
2019-05-23T12:27:35.829Z,10.27
2019-05-23T12:31:38.156Z,7.13
2019-05-23T12:35:40.413Z,9.27
2019-05-23T12:39:43.630Z,5.70
2019-05-23T12:43:46.074Z,7.97
2019-05-23T12:47:56.654Z,8.27
2019-05-23T12:52:01.364Z,5.93
2019-05-23T12:56:04.204Z,11.13
2019-05-23T13:00:09.200Z,7.53
2019-05-23T13:04:11.803Z,12.60
2019-05-23T13:08:16.751Z,9.63
2019-05-23T13:12:19.247Z,8.27
2019-05-23T13:16:21.528Z,11.10
2019-05-23T13:20:24.249Z,11.33
2019-05-23T13:24:26.439Z,6.43
2019-05-23T13:28:28.850Z,10.93
2019-05-23T13:32:31.020Z,8.47
2019-05-23T13:36:33.439Z,8.60
2019-05-23T13:40:36.646Z,14.17
2019-05-23T13:44:39.294Z,7.70
2019-05-23T13:48:41.881Z,9.73
2019-05-23T13:52:45.712Z,9.23
2019-05-23T13:56:48.225Z,7.73
2019-05-23T14:00:50.705Z,15.13
2019-05-23T14:04:52.965Z,8.37
2019-05-23T14:08:56.284Z,12.67
2019-05-23T14:12:58.590Z,10.37
2019-05-23T14:17:18.347Z,11.47
2019-05-23T14:21:20.511Z,9.63
2019-05-23T14:25:23.438Z,9.77
2019-05-23T14:29:25.630Z,9.47
2019-05-23T14:33:47.043Z,12.67
2019-05-23T14:37:52.659Z,9.20
2019-05-23T14:42:00.586Z,8.60
2019-05-23T14:46:08.735Z,9.20
2019-05-23T14:50:32.255Z,7.67
2019-05-23T14:54:45.545Z,15.83
2019-05-23T14:58:48.414Z,8.50
2019-05-23T15:02:50.823Z,8.47
2019-05-23T15:06:53.008Z,12.20
2019-05-23T15:10:55.199Z,10.00
2019-05-23T15:14:57.402Z,10.50
2019-05-23T15:18:59.518Z,9.27
2019-05-23T15:23:01.518Z,7.10
2019-05-23T15:27:03.915Z,5.73
2019-05-23T15:31:06.461Z,7.77
2019-05-23T15:35:08.283Z,7.70
2019-05-23T15:39:11.027Z,7.93
2019-05-23T15:43:12.862Z,5.57
2019-05-23T15:47:14.943Z,7.47
2019-05-23T15:51:21.056Z,6.50
2019-05-23T15:55:45.169Z,10.67
2019-05-23T16:00:09.597Z,7.53
2019-05-23T16:04:13.848Z,9.03
2019-05-23T16:08:15.864Z,7.00
2019-05-23T16:12:18.016Z,7.80
2019-05-23T16:16:19.910Z,9.37
2019-05-23T16:20:22.347Z,5.67
2019-05-23T16:24:24.458Z,9.53
2019-05-23T16:28:26.558Z,6.60
2019-05-23T16:32:28.383Z,11.17
2019-05-23T16:36:30.817Z,8.73
2019-05-23T16:40:33.136Z,8.80
2019-05-23T16:44:35.280Z,7.87
2019-05-23T16:48:38.662Z,10.10
2019-05-23T16:52:41.162Z,7.10
2019-05-23T16:56:56.963Z,7.23
2019-05-23T17:01:20.334Z,14.30
2019-05-23T17:05:30.922Z,10.57
2019-05-23T17:10:06.911Z,7.40
2019-05-23T17:14:02.168Z,8.70
2019-05-23T17:18:32.647Z,7.80
2019-05-23T17:23:00.960Z,8.53
2019-05-23T17:27:08.805Z,10.47
2019-05-23T17:31:16.255Z,9.43
2019-05-23T17:35:18.612Z,6.23
2019-05-23T17:39:21.028Z,7.20
2019-05-23T17:43:23.388Z,5.70
2019-05-23T17:47:25.897Z,9.60
2019-05-23T17:51:28.263Z,11.27
2019-05-23T17:55:32.176Z,4.53
2019-05-23T17:59:34.388Z,4.93
2019-05-23T18:03:37.925Z,5.17
2019-05-23T18:07:41.845Z,15.67
2019-05-23T18:11:44.020Z,8.67
2019-05-23T18:15:46.247Z,4.47
2019-05-23T18:19:48.372Z,4.50
2019-05-23T18:23:50.812Z,6.33
2019-05-23T18:27:53.525Z,7.43
2019-05-23T18:31:56.231Z,8.13
2019-05-23T18:35:58.929Z,3.33
2019-05-23T18:40:01.136Z,5.80
2019-05-23T18:44:03.605Z,3.37
2019-05-23T18:48:08.558Z,13.23
2019-05-23T18:52:11.207Z,7.20
2019-05-23T18:56:13.422Z,5.67
2019-05-23T19:00:17.721Z,3.13
2019-05-23T19:04:20.785Z,6.70
2019-05-23T19:08:23.630Z,5.67
2019-05-23T19:12:26.259Z,3.90
2019-05-23T19:16:29.299Z,7.43
2019-05-23T19:20:31.863Z,3.77
2019-05-23T19:24:34.486Z,3.23
2019-05-23T19:28:37.440Z,3.47
2019-05-23T19:32:39.481Z,4.20
2019-05-23T19:36:41.922Z,2.77
2019-05-23T19:40:45.121Z,5.27
2019-05-23T19:44:47.337Z,8.40
2019-05-23T19:48:50.219Z,6.17
2019-05-23T19:52:52.726Z,3.83
2019-05-23T19:56:54.893Z,4.77
2019-05-23T20:00:57.243Z,4.20
2019-05-23T20:05:03.575Z,5.77
2019-05-23T20:09:11.237Z,2.83
2019-05-23T20:13:13.575Z,6.77
2019-05-23T20:17:16.123Z,4.37
2019-05-23T20:21:18.553Z,5.00
2019-05-23T20:25:20.782Z,4.67
2019-05-23T20:29:22.895Z,3.13
2019-05-23T20:33:26.051Z,6.93
2019-05-23T20:37:30.338Z,4.40
2019-05-23T20:41:32.669Z,4.00
2019-05-23T20:45:35.072Z,3.13
2019-05-23T20:49:37.468Z,6.80
2019-05-23T20:53:39.567Z,5.43
2019-05-23T20:57:41.780Z,3.33
2019-05-23T21:01:44.489Z,3.93
2019-05-23T21:05:47.023Z,4.20
2019-05-23T21:09:49.261Z,3.13
2019-05-23T21:13:51.719Z,3.97
2019-05-23T21:17:53.878Z,4.30
2019-05-23T21:21:56.059Z,3.57
2019-05-23T21:26:02.598Z,3.30
2019-05-23T21:30:05.056Z,7.53
2019-05-23T21:34:07.670Z,2.80
2019-05-23T21:38:10.233Z,2.40
2019-05-23T21:42:12.754Z,3.20
2019-05-23T21:46:15.324Z,5.27
2019-05-23T21:50:17.532Z,3.33
2019-05-23T21:54:19.964Z,4.93
2019-05-23T21:58:21.984Z,3.20
2019-05-23T22:02:30.507Z,3.93
2019-05-23T22:06:33.842Z,8.17
2019-05-23T22:10:37.685Z,3.33
2019-05-23T22:14:39.837Z,6.20
2019-05-23T22:18:42.045Z,3.53
2019-05-23T22:22:44.187Z,3.87
2019-05-23T22:26:46.419Z,7.47
2019-05-23T22:30:48.615Z,3.60
2019-05-23T22:35:01.455Z,6.10
2019-05-23T22:39:03.765Z,1.83
2019-05-23T22:43:20.197Z,4.13
2019-05-23T22:47:09.749Z,1.93
2019-05-23T22:51:11.756Z,2.17
2019-05-23T22:55:14.004Z,3.13
2019-05-23T22:59:16.132Z,2.50
2019-05-23T23:03:18.387Z,2.03
2019-05-23T23:07:20.662Z,3.33
2019-05-23T23:11:23.201Z,2.27
2019-05-23T23:15:28.001Z,3.77
2019-05-23T23:19:30.317Z,7.33
2019-05-23T23:23:32.476Z,3.10
2019-05-23T23:27:34.758Z,1.20
2019-05-23T23:31:38.023Z,5.27
2019-05-23T23:35:40.104Z,4.27
2019-05-23T23:39:42.295Z,3.67
2019-05-23T23:43:58.871Z,1.93
2019-05-23T23:48:05.982Z,3.67
2019-05-23T23:52:25.948Z,2.87
2019-05-23T23:56:46.053Z,3.33
